Terminal Aerodrome Forecast
Issued by NWS

Home | Current Version | Previous Version | Text Only | Print | Product List | Glossary On
Versions: 1 2 3 4 5 6 7 8 9 10 11 12 13
000
FTUS46 KMTR 241720
TAFMRY
TAF
KMRY 241720Z 2418/2518 28006KT P6SM SKC
     FM250200 22004KT P6SM FEW050
     FM250400 15004KT P6SM SCT030
     FM251000 13004KT P6SM BKN050
     FM251500 VRB03KT P6SM SCT050=

USA.gov is the U.S. government's official web portal to all federal, state and local government web resources and services.